Time;durP1;ratioP1;P1;durP2;ratioP2;P2;SDS_P1;SDS_P2;PMS_P1;PMS_P2;Temp;Humidity;BMP_temperature;BMP_pressure;BME280_temperature;BME280_humidity;BME280_pressure;Samples;Min_cycle;Max_cycle;Signal;HPM_P1;HPM_P2
2022/05/10 05:01:38;;;;;;;;;;;;;;;17.61;100.00;99018.22;5249403;23;19977;-72
2022/05/10 05:04:06;;;;;;;;;;;;;;;18.00;100.00;99020.41;4902165;29;19948;-72
2022/05/10 05:06:35;;;;;;;;;;;;;;;18.33;100.00;99025.91;4902931;29;19960;-73
2022/05/10 05:09:03;;;;;;;;;;;;;;;18.81;100.00;99024.59;4901875;29;19956;-73
2022/05/10 05:11:33;;;;;;;;;;;;;;;19.32;100.00;99023.09;4896280;29;19974;-74
2022/05/10 05:14:00;;;;;;;;;;;;;;;19.72;100.00;99029.50;4900904;29;19951;-73
2022/05/10 05:16:28;;;;;;;;;;;;;;;20.01;100.00;99030.41;4903705;29;19946;-74
2022/05/10 05:18:55;;;;;;;;;;;;;;;20.53;100.00;99038.84;4902880;29;19956;-74
2022/05/10 05:21:22;;;;;;;;;;;;;;;21.09;100.00;99036.47;4902053;29;19963;-73
2022/05/10 05:23:49;;;;;;;;;;;;;;;21.24;100.00;99043.34;4902201;29;20261;-72
2022/05/10 05:26:18;;;;;;;;;;;;;;;21.71;100.00;99046.38;4901005;29;19949;-72
2022/05/10 05:28:45;;;;;;;;;;;;;;;21.82;100.00;99041.13;4901212;29;19946;-72
2022/05/10 05:31:13;;;;;;;;;;;;;;;22.04;100.00;99047.75;4901161;29;19952;-72
2022/05/10 05:33:45;;;;;;;;;;;;;;;22.27;100.00;99049.44;4900638;29;19998;-72
2022/05/10 05:36:12;;;;;;;;;;;;;;;22.36;100.00;99050.31;4903241;29;19956;-72
2022/05/10 05:38:40;;;;;;;;;;;;;;;22.33;100.00;99056.13;4902359;29;20234;-72
2022/05/10 05:41:07;;;;;;;;;;;;;;;21.70;100.00;99050.44;4898003;29;20239;-72
2022/05/10 05:43:34;;;;;;;;;;;;;;;21.44;100.00;99058.97;4894046;29;19955;-72
2022/05/10 05:46:02;;;;;;;;;;;;;;;20.98;100.00;99056.63;4900971;29;19977;-72
2022/05/10 05:48:29;;;;;;;;;;;;;;;20.77;100.00;99055.22;4902800;29;19954;-70
2022/05/10 05:50:57;;;;;;;;;;;;;;;20.64;100.00;99056.41;4891477;29;19957;-73
2022/05/10 05:53:26;;;;;;;;;;;;;;;20.29;100.00;99058.94;4883031;29;19974;-73
2022/05/10 05:55:58;;;;;;;;;;;;;;;20.21;100.00;99056.69;4883584;29;19949;-73
2022/05/10 05:58:26;;;;;;;;;;;;;;;20.06;100.00;99061.91;4895755;29;19979;-73
2022/05/10 06:00:53;;;;;;;;;;;;;;;19.89;100.00;99056.66;4888210;29;19978;-73
2022/05/10 06:03:20;;;;;;;;;;;;;;;19.76;100.00;99059.41;4901414;29;19953;-73
2022/05/10 06:05:49;;;;;;;;;;;;;;;19.67;100.00;99053.53;4901047;29;19947;-73
2022/05/10 06:08:18;;;;;;;;;;;;;;;19.73;100.00;99053.81;4901004;29;20366;-73
2022/05/10 06:10:50;;;;;;;;;;;;;;;19.73;100.00;99057.47;4894624;29;19948;-73
2022/05/10 06:13:27;;;;;;;;;;;;;;;19.82;100.00;99063.31;5115681;27;19997;-72
2022/05/10 06:15:54;;;;;;;;;;;;;;;19.84;100.00;99063.66;5087558;28;19952;-72
2022/05/10 06:18:21;;;;;;;;;;;;;;;19.93;100.00;99063.06;5126375;27;19953;-73
2022/05/10 06:20:49;;;;;;;;;;;;;;;19.87;100.00;99064.81;5091579;28;19955;-72
2022/05/10 06:23:16;;;;;;;;;;;;;;;19.81;100.00;99061.72;5092614;28;20352;-72
2022/05/10 06:25:43;;;;;;;;;;;;;;;19.87;100.00;99059.97;5092473;28;20206;-72
2022/05/10 06:28:13;;;;;;;;;;;;;;;19.90;100.00;99063.94;5088654;28;19945;-73
2022/05/10 06:30:40;;;;;;;;;;;;;;;19.88;100.00;99060.75;5097548;28;19949;-72
2022/05/10 06:33:07;;;;;;;;;;;;;;;19.83;100.00;99058.44;5092789;28;19963;-73
2022/05/10 06:35:34;;;;;;;;;;;;;;;19.63;100.00;99058.50;5091543;28;20323;-73
2022/05/10 06:38:19;;;;;;;;;;;;;;;19.72;100.00;99066.41;5090697;28;19946;-73
2022/05/10 06:40:49;;;;;;;;;;;;;;;19.82;100.00;99068.19;5074318;28;19950;-73
2022/05/10 06:43:16;;;;;;;;;;;;;;;19.75;100.00;99068.34;5094559;28;20239;-74
2022/05/10 06:45:44;;;;;;;;;;;;;;;19.81;100.00;99058.88;5084375;28;19943;-73
2022/05/10 06:48:12;;;;;;;;;;;;;;;19.83;100.00;99067.75;5091140;28;19958;-73
2022/05/10 06:50:39;;;;;;;;;;;;;;;19.96;100.00;99067.84;5113744;28;20209;-73
2022/05/10 06:53:07;;;;;;;;;;;;;;;20.09;100.00;99063.88;5102695;28;19961;-73
2022/05/10 06:55:35;;;;;;;;;;;;;;;20.17;100.00;99067.34;5088200;28;19952;-73
2022/05/10 06:58:03;;;;;;;;;;;;;;;20.22;100.00;99061.94;5090232;28;20337;-73
2022/05/10 07:00:32;;;;;;;;;;;;;;;20.30;100.00;99060.53;5090126;28;19951;-73
2022/05/10 07:03:03;;;;;;;;;;;;;;;20.28;100.00;99054.50;5091683;28;20360;-73
2022/05/10 07:05:30;;;;;;;;;;;;;;;20.41;100.00;99056.59;5090061;28;19970;-73
2022/05/10 07:07:57;;;;;;;;;;;;;;;20.48;100.00;99059.25;5089579;28;19949;-73
2022/05/10 07:10:24;;;;;;;;;;;;;;;20.53;100.00;99051.00;5104716;28;19946;-73
2022/05/10 07:12:53;;;;;;;;;;;;;;;20.50;100.00;99057.56;5113569;28;19967;-73
2022/05/10 07:15:22;;;;;;;;;;;;;;;20.65;100.00;99053.09;5114057;28;20176;-74
2022/05/10 07:17:50;;;;;;;;;;;;;;;20.63;100.00;99061.28;5113849;28;19950;-73
2022/05/10 07:20:17;;;;;;;;;;;;;;;20.72;100.00;99054.94;5112968;28;19946;-74
2022/05/10 07:22:45;;;;;;;;;;;;;;;20.58;100.00;99061.81;5072282;28;20372;-73
2022/05/10 07:25:14;;;;;;;;;;;;;;;20.74;100.00;99056.09;5068582;28;19944;-73
2022/05/10 07:27:41;;;;;;;;;;;;;;;20.84;100.00;99065.56;5076480;28;19952;-73
2022/05/10 07:30:09;;;;;;;;;;;;;;;20.94;100.00;99062.44;5080294;28;19949;-73
2022/05/10 07:32:37;;;;;;;;;;;;;;;21.06;100.00;99058.06;5079185;28;19967;-73
2022/05/10 07:35:05;;;;;;;;;;;;;;;21.12;100.00;99061.97;5079810;28;19944;-74
2022/05/10 07:37:35;;;;;;;;;;;;;;;21.14;100.00;99064.34;5079542;28;19941;-73
2022/05/10 07:40:03;;;;;;;;;;;;;;;21.25;100.00;99053.47;5080153;28;19944;-74
2022/05/10 07:42:30;;;;;;;;;;;;;;;21.32;100.00;99050.41;5080418;28;19944;-73
2022/05/10 07:44:57;;;;;;;;;;;;;;;21.40;100.00;99058.28;5079513;28;20358;-73
2022/05/10 07:47:24;;;;;;;;;;;;;;;21.39;100.00;99055.88;5079387;28;19941;-73
2022/05/10 07:49:52;;;;;;;;;;;;;;;21.54;100.00;99048.53;5078752;28;19944;-73
2022/05/10 07:52:19;;;;;;;;;;;;;;;21.42;100.00;99046.47;5079411;28;19976;-73
2022/05/10 07:54:46;;;;;;;;;;;;;;;21.60;100.00;99041.81;5080877;28;19947;-73
2022/05/10 07:57:13;;;;;;;;;;;;;;;21.73;100.00;99041.81;5080092;28;19943;-73
2022/05/10 07:59:40;;;;;;;;;;;;;;;21.69;100.00;99040.34;5065782;28;19949;-73
2022/05/10 08:02:08;;;;;;;;;;;;;;;21.78;100.00;99043.28;5078003;28;19944;-73
2022/05/10 08:04:35;;;;;;;;;;;;;;;21.55;100.00;99042.38;5076955;28;19955;-73
2022/05/10 08:07:03;;;;;;;;;;;;;;;21.54;100.00;99039.97;5077659;28;20335;-73
2022/05/10 08:09:30;;;;;;;;;;;;;;;21.36;100.00;99036.88;5079268;28;19944;-73
2022/05/10 08:11:58;;;;;;;;;;;;;;;21.55;100.00;99033.81;5078318;28;19997;-73
2022/05/10 08:14:25;;;;;;;;;;;;;;;21.63;100.00;99042.13;5080487;28;19946;-72
2022/05/10 08:16:55;;;;;;;;;;;;;;;21.75;100.00;99036.44;5075256;28;19946;-74
2022/05/10 08:19:22;;;;;;;;;;;;;;;21.62;100.00;99035.66;5075706;28;19955;-75
2022/05/10 08:21:49;;;;;;;;;;;;;;;21.44;100.00;99029.72;5078768;28;20205;-73
2022/05/10 08:24:16;;;;;;;;;;;;;;;21.59;100.00;99022.34;5075621;28;19943;-73
2022/05/10 08:26:44;;;;;;;;;;;;;;;21.43;100.00;99028.91;5079868;28;19949;-73
2022/05/10 08:29:11;;;;;;;;;;;;;;;21.45;100.00;99029.25;5084616;28;19944;-73
2022/05/10 08:31:58;;;;;;;;;;;;;;;21.50;100.00;99030.75;5084422;28;19955;-73
2022/05/10 08:34:27;;;;;;;;;;;;;;;21.65;100.00;99033.94;5079835;28;20244;-73
2022/05/10 08:36:55;;;;;;;;;;;;;;;21.60;100.00;99035.31;5077890;28;19954;-73
2022/05/10 08:39:22;;;;;;;;;;;;;;;21.54;100.00;99028.59;5079040;28;19949;-73
2022/05/10 08:41:55;;;;;;;;;;;;;;;21.77;100.00;99033.94;5095876;28;20222;-73
2022/05/10 08:44:24;;;;;;;;;;;;;;;21.70;100.00;99025.63;5077599;28;20335;-73
2022/05/10 08:46:53;;;;;;;;;;;;;;;21.76;100.00;99029.53;5078041;28;19957;-73
2022/05/10 08:49:26;;;;;;;;;;;;;;;21.79;100.00;99030.66;5078403;28;19941;-74
2022/05/10 08:51:53;;;;;;;;;;;;;;;21.97;100.00;99023.16;5081919;28;19953;-73
2022/05/10 08:54:21;;;;;;;;;;;;;;;21.82;100.00;99030.53;5078602;28;19960;-73
2022/05/10 08:56:53;;;;;;;;;;;;;;;21.88;100.00;99030.78;5059333;28;19951;-73
2022/05/10 08:59:32;;;;;;;;;;;;;;;22.07;100.00;99027.69;5058169;28;19948;-73
2022/05/10 09:02:05;;;;;;;;;;;;;;;21.90;100.00;99028.28;5058641;28;19949;-73
2022/05/10 09:04:51;;;;;;;;;;;;;;;22.14;100.00;99018.09;5062207;28;20232;-73
2022/05/10 09:07:24;;;;;;;;;;;;;;;22.23;100.00;99023.91;5077017;28;19944;-73
2022/05/10 09:09:54;;;;;;;;;;;;;;;22.12;100.00;99021.44;5074531;28;20229;-73
2022/05/10 09:12:23;;;;;;;;;;;;;;;22.13;100.00;99025.84;5074096;28;19970;-73
2022/05/10 09:14:59;;;;;;;;;;;;;;;21.91;100.00;99030.66;5088401;28;20263;-73
2022/05/10 09:17:29;;;;;;;;;;;;;;;21.99;100.00;99037.72;5058430;28;19943;-73
2022/05/10 09:19:57;;;;;;;;;;;;;;;22.13;100.00;99027.94;5078592;28;19950;-73
2022/05/10 09:22:44;;;;;;;;;;;;;;;22.12;100.00;99032.03;5057544;28;19942;-73
2022/05/10 09:25:19;;;;;;;;;;;;;;;22.23;100.00;99029.59;5056859;28;19950;-73
2022/05/10 09:27:48;;;;;;;;;;;;;;;22.21;100.00;99026.41;5057393;28;19953;-73
2022/05/10 09:30:29;;;;;;;;;;;;;;;22.32;100.00;99026.06;5062548;28;19951;-77
2022/05/10 09:36:04;;;;;;;;;;;;;;;22.12;100.00;99020.63;5077092;28;20331;-76
2022/05/10 09:38:33;;;;;;;;;;;;;;;22.08;100.00;99028.50;5070027;28;19952;-76
2022/05/10 09:41:03;;;;;;;;;;;;;;;22.13;100.00;99030.78;5067633;28;19947;-76
2022/05/10 09:43:33;;;;;;;;;;;;;;;22.18;100.00;99027.31;5070369;28;19943;-76
2022/05/10 09:46:12;;;;;;;;;;;;;;;22.05;100.00;99029.41;5061242;28;19951;-76
2022/05/10 09:48:42;;;;;;;;;;;;;;;22.15;100.00;99026.19;5076389;28;19958;-76
2022/05/10 09:51:29;;;;;;;;;;;;;;;22.35;100.00;99025.91;5074757;28;19947;-77
2022/05/10 09:53:57;;;;;;;;;;;;;;;22.16;100.00;99024.13;5066786;28;19959;-76
2022/05/10 09:56:28;;;;;;;;;;;;;;;22.24;100.00;99017.75;5076616;28;19943;-77
2022/05/10 09:59:01;;;;;;;;;;;;;;;22.30;100.00;99017.97;5076837;28;19943;-76
2022/05/10 10:01:36;;;;;;;;;;;;;;;22.27;100.00;99018.09;5077729;28;19952;-76
2022/05/10 10:04:32;;;;;;;;;;;;;;;22.45;100.00;99023.97;5077288;28;19945;-77
2022/05/10 10:07:05;;;;;;;;;;;;;;;22.43;100.00;99017.91;5075122;28;20253;-76
2022/05/10 10:09:34;;;;;;;;;;;;;;;22.55;100.00;99014.22;5077640;28;20202;-77
2022/05/10 10:12:02;;;;;;;;;;;;;;;22.66;100.00;99009.00;5068749;28;19976;-76
2022/05/10 10:14:48;;;;;;;;;;;;;;;22.61;100.00;99010.38;5056954;28;19968;-76
2022/05/10 10:17:18;;;;;;;;;;;;;;;22.56;100.00;99008.09;5070104;28;19949;-76
2022/05/10 10:19:49;;;;;;;;;;;;;;;22.57;100.00;99018.22;5080552;28;19944;-76
2022/05/10 10:22:23;;;;;;;;;;;;;;;22.51;100.00;99005.81;5077356;28;20210;-76
2022/05/10 10:24:59;;;;;;;;;;;;;;;22.47;100.00;99007.22;5078062;28;20241;-77
2022/05/10 10:27:50;;;;;;;;;;;;;;;22.53;100.00;99003.31;5076855;28;19948;-77
2022/05/10 10:30:17;;;;;;;;;;;;;;;22.49;100.00;98996.16;5047161;28;19943;-76
2022/05/10 10:32:49;;;;;;;;;;;;;;;22.46;100.00;99005.59;5056944;28;19948;-76
2022/05/10 10:35:29;;;;;;;;;;;;;;;22.25;100.00;99010.00;5057005;28;19952;-76
2022/05/10 10:37:59;;;;;;;;;;;;;;;22.48;100.00;99005.94;5064319;28;19951;-76
2022/05/10 10:40:44;;;;;;;;;;;;;;;22.33;100.00;99005.63;5076792;28;19944;-76
2022/05/10 10:43:30;;;;;;;;;;;;;;;22.29;100.00;99013.53;5077716;28;19949;-76
2022/05/10 10:46:17;;;;;;;;;;;;;;;22.21;100.00;99009.31;5073905;28;19975;-75
2022/05/10 10:48:46;;;;;;;;;;;;;;;22.36;100.00;99001.88;5071100;28;20242;-79
2022/05/10 10:51:15;;;;;;;;;;;;;;;22.28;100.00;98997.69;5077362;28;19950;-76
2022/05/10 10:53:44;;;;;;;;;;;;;;;22.43;100.00;98997.97;5060366;28;19963;-81
2022/05/10 10:56:20;;;;;;;;;;;;;;;22.49;100.00;98988.41;5056718;28;19947;-77
2022/05/10 10:58:53;;;;;;;;;;;;;;;22.51;100.00;98988.72;5068958;28;20014;-77
2022/05/10 11:01:23;;;;;;;;;;;;;;;22.57;100.00;98980.38;5062678;28;19958;-76
2022/05/10 11:03:57;;;;;;;;;;;;;;;22.62;100.00;98976.97;5060747;28;20211;-76
2022/05/10 11:06:28;;;;;;;;;;;;;;;22.48;100.00;98981.09;5060414;28;19972;-76
2022/05/10 11:08:55;;;;;;;;;;;;;;;22.39;100.00;98985.91;5063911;28;20245;-76
2022/05/10 11:11:25;;;;;;;;;;;;;;;22.42;100.00;98977.25;5079410;28;20344;-77
2022/05/10 11:14:01;;;;;;;;;;;;;;;22.50;100.00;98972.88;5077504;28;19976;-77
2022/05/10 11:16:42;;;;;;;;;;;;;;;22.56;100.00;98973.09;5068273;28;19952;-76
2022/05/10 11:19:29;;;;;;;;;;;;;;;22.50;100.00;98969.22;5080260;28;19947;-76
2022/05/10 11:22:11;;;;;;;;;;;;;;;22.52;100.00;98966.72;5079528;28;19944;-76
2022/05/10 11:24:44;;;;;;;;;;;;;;;22.46;100.00;98960.00;5078669;28;19944;-76
2022/05/10 11:27:22;;;;;;;;;;;;;;;22.42;100.00;98959.34;5079408;28;19974;-76
2022/05/10 11:30:09;;;;;;;;;;;;;;;22.52;100.00;98961.03;5079259;28;19948;-76
2022/05/10 11:32:45;;;;;;;;;;;;;;;22.52;100.00;98953.25;5078426;28;19946;-76
2022/05/10 11:35:24;;;;;;;;;;;;;;;22.56;100.00;98951.06;5078530;28;20228;-76
2022/05/10 11:37:57;;;;;;;;;;;;;;;22.60;100.00;98954.59;5078872;28;19945;-76
2022/05/10 11:40:39;;;;;;;;;;;;;;;22.60;100.00;98946.03;5079483;28;19956;-76
2022/05/10 11:43:25;;;;;;;;;;;;;;;22.49;100.00;98945.63;5080236;28;19945;-76
2022/05/10 11:45:56;;;;;;;;;;;;;;;22.34;100.00;98943.75;5079726;28;20325;-76
2022/05/10 11:48:42;;;;;;;;;;;;;;;22.28;100.00;98943.53;5080378;28;19950;-76
2022/05/10 11:51:42;;;;;;;;;;;;;;;22.25;100.00;98935.94;5080015;28;20258;-76
2022/05/10 11:54:18;;;;;;;;;;;;;;;22.37;100.00;98935.09;5079416;28;19966;-76
2022/05/10 11:56:47;;;;;;;;;;;;;;;22.17;100.00;98938.25;5079225;28;19940;-76
2022/05/10 11:59:21;;;;;;;;;;;;;;;22.29;100.00;98939.44;5078722;28;19953;-76
2022/05/10 12:01:50;;;;;;;;;;;;;;;22.30;100.00;98932.50;5079988;28;19953;-76
2022/05/10 12:04:36;;;;;;;;;;;;;;;22.25;100.00;98933.09;5080021;28;19945;-76
2022/05/10 12:07:18;;;;;;;;;;;;;;;22.33;100.00;98931.56;5079192;28;19954;-76
2022/05/10 12:09:51;;;;;;;;;;;;;;;22.44;100.00;98929.13;5079379;28;20341;-76
2022/05/10 12:12:41;;;;;;;;;;;;;;;22.52;100.00;98921.88;5077245;28;19964;-77
2022/05/10 12:21:20;;;;;;;;;;;;;;;22.32;100.00;98917.78;5079312;28;19945;-76
2022/05/10 12:24:03;;;;;;;;;;;;;;;22.41;100.00;98920.69;5079078;28;20358;-76
2022/05/10 12:26:35;;;;;;;;;;;;;;;22.39;100.00;98912.63;5076829;28;20316;-76
2022/05/10 12:29:07;;;;;;;;;;;;;;;22.31;100.00;98914.13;5069511;28;19946;-76
2022/05/10 12:31:34;;;;;;;;;;;;;;;22.42;100.00;98902.34;5060405;28;19943;-76
2022/05/10 12:34:08;;;;;;;;;;;;;;;22.25;100.00;98907.44;5079072;28;19972;-76
2022/05/10 12:36:41;;;;;;;;;;;;;;;22.39;100.00;98908.97;5078250;28;19946;-76
2022/05/10 12:39:14;;;;;;;;;;;;;;;22.39;100.00;98901.22;5078977;28;19939;-75
2022/05/10 12:41:49;;;;;;;;;;;;;;;22.41;100.00;98898.69;5079432;28;19952;-75
2022/05/10 12:44:26;;;;;;;;;;;;;;;22.40;100.00;98899.94;5078449;28;19956;-75
2022/05/10 12:47:28;;;;;;;;;;;;;;;22.31;100.00;98891.34;5078609;28;19952;-75
2022/05/10 12:50:21;;;;;;;;;;;;;;;22.39;100.00;98891.88;5054496;28;19943;-75
2022/05/10 12:52:49;;;;;;;;;;;;;;;22.34;100.00;98890.41;5072167;28;19945;-76
2022/05/10 12:55:30;;;;;;;;;;;;;;;22.36;100.00;98890.75;5078204;28;20382;-76
2022/05/10 12:58:01;;;;;;;;;;;;;;;22.33;100.00;98876.59;5078450;28;19952;-76
2022/05/10 13:00:34;;;;;;;;;;;;;;;22.36;100.00;98873.66;5078559;28;19949;-75
2022/05/10 13:03:07;;;;;;;;;;;;;;;22.32;100.00;98877.88;5078105;28;20022;-76
2022/05/10 13:05:44;;;;;;;;;;;;;;;22.36;100.00;98873.66;5078177;28;19950;-76
2022/05/10 13:08:50;;;;;;;;;;;;;;;22.47;100.00;98876.09;5078407;28;19957;-73
2022/05/10 13:11:39;;;;;;;;;;;;;;;22.38;100.00;98862.56;5031107;28;20406;-76
2022/05/10 13:14:08;;;;;;;;;;;;;;;22.39;100.00;98864.19;5045919;28;19958;-76
2022/05/10 13:16:36;;;;;;;;;;;;;;;22.38;100.00;98870.31;5062779;28;19943;-76
2022/05/10 13:19:04;;;;;;;;;;;;;;;22.34;100.00;98864.78;5068446;28;19954;-76
2022/05/10 13:21:31;;;;;;;;;;;;;;;22.46;100.00;98863.91;5067567;28;20340;-76
2022/05/10 13:24:07;;;;;;;;;;;;;;;22.49;100.00;98860.13;5084311;28;19947;-78
2022/05/10 13:26:36;;;;;;;;;;;;;;;22.44;100.00;98862.78;5083459;28;20017;-77
2022/05/10 13:29:06;;;;;;;;;;;;;;;22.47;100.00;98848.38;5080198;28;20238;-77
2022/05/10 13:31:35;;;;;;;;;;;;;;;22.43;100.00;98850.56;5081653;28;20011;-76
2022/05/10 13:34:09;;;;;;;;;;;;;;;22.48;100.00;98847.13;5077455;28;20245;-75
2022/05/10 13:36:37;;;;;;;;;;;;;;;22.46;100.00;98837.47;5075099;28;19945;-75
2022/05/10 13:39:06;;;;;;;;;;;;;;;22.48;100.00;98832.88;5081232;28;20365;-75
2022/05/10 13:41:36;;;;;;;;;;;;;;;22.59;100.00;98836.13;5076879;28;19971;-75
2022/05/10 13:44:09;;;;;;;;;;;;;;;22.53;100.00;98826.56;5087052;28;19951;-75
2022/05/10 13:46:46;;;;;;;;;;;;;;;22.49;100.00;98827.97;5076397;28;19951;-75
2022/05/10 13:49:15;;;;;;;;;;;;;;;22.50;100.00;98830.34;5076050;28;19948;-75
2022/05/10 13:51:43;;;;;;;;;;;;;;;22.41;100.00;98824.59;5074638;28;19950;-75
2022/05/10 13:54:22;;;;;;;;;;;;;;;22.43;100.00;98822.06;5075932;28;19950;-75
2022/05/10 13:56:50;;;;;;;;;;;;;;;22.46;100.00;98815.47;5073114;28;19950;-75
2022/05/10 13:59:30;;;;;;;;;;;;;;;22.37;100.00;98826.81;5075462;28;19976;-75
2022/05/10 14:02:02;;;;;;;;;;;;;;;22.32;100.00;98818.06;5071876;28;20569;-75
2022/05/10 14:04:30;;;;;;;;;;;;;;;22.40;100.00;98817.31;5070340;28;19954;-75
2022/05/10 14:07:03;;;;;;;;;;;;;;;22.45;100.00;98813.84;5084087;28;19945;-75
2022/05/10 14:09:35;;;;;;;;;;;;;;;22.51;100.00;98812.00;5076431;28;19945;-75
2022/05/10 14:12:03;;;;;;;;;;;;;;;22.44;100.00;98811.47;5076159;28;19973;-75
2022/05/10 14:14:31;;;;;;;;;;;;;;;22.52;100.00;98801.41;5076274;28;19961;-75
2022/05/10 14:16:59;;;;;;;;;;;;;;;22.46;100.00;98798.34;5077258;28;19946;-75
2022/05/10 14:19:28;;;;;;;;;;;;;;;22.49;100.00;98802.31;5077872;28;19948;-75
2022/05/10 14:21:57;;;;;;;;;;;;;;;22.47;100.00;98794.22;5078494;28;20444;-75
2022/05/10 14:24:24;;;;;;;;;;;;;;;22.45;100.00;98790.28;5088941;28;19951;-75
2022/05/10 14:27:02;;;;;;;;;;;;;;;22.42;100.00;98789.16;5076535;28;19945;-75
2022/05/10 14:29:39;;;;;;;;;;;;;;;22.41;100.00;98792.44;5077284;28;19970;-75
2022/05/10 14:32:11;;;;;;;;;;;;;;;22.41;100.00;98790.41;5077130;28;20207;-75
2022/05/10 14:34:49;;;;;;;;;;;;;;;22.41;100.00;98781.84;5079956;28;19946;-75
2022/05/10 14:37:18;;;;;;;;;;;;;;;22.42;100.00;98776.97;5080566;28;19949;-75
2022/05/10 14:39:45;;;;;;;;;;;;;;;22.30;100.00;98774.97;5083138;28;19952;-75
2022/05/10 14:42:32;;;;;;;;;;;;;;;22.27;100.00;98773.06;5089003;28;19946;-75
2022/05/10 14:45:13;;;;;;;;;;;;;;;22.25;100.00;98767.84;5080655;28;19945;-75
2022/05/10 14:47:40;;;;;;;;;;;;;;;22.24;100.00;98767.03;5093545;28;20213;-75
2022/05/10 14:50:27;;;;;;;;;;;;;;;22.27;100.00;98764.50;5081838;28;19955;-75
2022/05/10 14:53:10;;;;;;;;;;;;;;;22.25;100.00;98762.91;5094888;28;19953;-75
2022/05/10 14:55:37;;;;;;;;;;;;;;;22.27;100.00;98759.63;5073319;28;19966;-75
2022/05/10 14:58:05;;;;;;;;;;;;;;;22.22;100.00;98748.81;5078374;28;19945;-75
2022/05/10 15:00:38;;;;;;;;;;;;;;;22.22;100.00;98752.47;5079358;28;19958;-75
2022/05/10 15:03:24;;;;;;;;;;;;;;;22.16;100.00;98753.50;5080322;28;19944;-75
2022/05/10 15:05:52;;;;;;;;;;;;;;;22.21;100.00;98741.53;5080231;28;19982;-75
2022/05/10 15:08:20;;;;;;;;;;;;;;;22.17;100.00;98738.81;5080267;28;19950;-75
2022/05/10 15:10:49;;;;;;;;;;;;;;;22.17;100.00;98744.53;5078815;28;19944;-75
2022/05/10 15:13:16;;;;;;;;;;;;;;;22.13;100.00;98737.38;5087937;28;19973;-75
2022/05/10 15:15:43;;;;;;;;;;;;;;;22.06;100.00;98740.47;5081291;28;19973;-75
2022/05/10 15:21:01;;;;;;;;;;;;;;;22.05;100.00;98733.19;5080585;28;19946;-75
2022/05/10 15:23:28;;;;;;;;;;;;;;;22.02;100.00;98734.94;5078081;28;19956;-75
2022/05/10 15:25:57;;;;;;;;;;;;;;;21.99;100.00;98732.19;5076465;28;19946;-75
2022/05/10 15:28:24;;;;;;;;;;;;;;;21.99;100.00;98733.00;5083747;28;20242;-75
2022/05/10 15:30:52;;;;;;;;;;;;;;;22.03;100.00;98741.41;5079638;28;19946;-75
2022/05/10 15:33:19;;;;;;;;;;;;;;;22.05;100.00;98733.19;5080754;28;20000;-75
2022/05/10 15:35:46;;;;;;;;;;;;;;;22.01;100.00;98732.53;5080219;28;19968;-75
2022/05/10 15:38:16;;;;;;;;;;;;;;;21.97;100.00;98729.81;5074047;28;19945;-75
2022/05/10 15:40:44;;;;;;;;;;;;;;;21.92;100.00;98723.94;5097451;28;19947;-75
2022/05/10 15:43:13;;;;;;;;;;;;;;;21.86;100.00;98726.56;5098801;28;20213;-75
2022/05/10 15:45:40;;;;;;;;;;;;;;;21.89;100.00;98725.66;5078899;28;19953;-75
2022/05/10 15:48:08;;;;;;;;;;;;;;;21.88;100.00;98724.06;5077192;28;19953;-75
2022/05/10 15:50:36;;;;;;;;;;;;;;;21.85;100.00;98721.34;5074734;28;19951;-75
2022/05/10 15:53:03;;;;;;;;;;;;;;;21.80;100.00;98719.88;5084583;28;19958;-75
2022/05/10 15:55:30;;;;;;;;;;;;;;;21.76;100.00;98719.22;5079750;28;19960;-75
2022/05/10 15:57:57;;;;;;;;;;;;;;;21.81;100.00;98715.75;5082748;28;20237;-75
2022/05/10 16:00:25;;;;;;;;;;;;;;;21.85;100.00;98710.75;5078557;28;20361;-75
2022/05/10 16:02:53;;;;;;;;;;;;;;;21.85;100.00;98704.25;5079428;28;19950;-75
2022/05/10 16:05:21;;;;;;;;;;;;;;;21.82;100.00;98705.16;5082535;28;20246;-75
2022/05/10 16:07:48;;;;;;;;;;;;;;;21.80;100.00;98704.81;5064473;28;19945;-75
2022/05/10 16:10:15;;;;;;;;;;;;;;;21.79;100.00;98697.56;5079618;28;19985;-75
2022/05/10 16:12:47;;;;;;;;;;;;;;;21.78;100.00;98702.47;5078094;28;20389;-75
2022/05/10 16:15:14;;;;;;;;;;;;;;;21.77;100.00;98705.75;5078467;28;19950;-75
2022/05/10 16:17:41;;;;;;;;;;;;;;;21.74;100.00;98698.94;5078354;28;20233;-74
2022/05/10 16:20:10;;;;;;;;;;;;;;;21.72;100.00;98697.81;5077693;28;20324;-75
2022/05/10 16:22:38;;;;;;;;;;;;;;;21.70;100.00;98697.47;5083571;28;19945;-75
2022/05/10 16:25:05;;;;;;;;;;;;;;;21.71;100.00;98696.22;5078753;28;19941;-75
2022/05/10 16:30:28;;;;;;;;;;;;;;;21.70;100.00;98688.94;5078763;28;19946;-74
2022/05/10 16:32:59;;;;;;;;;;;;;;;21.70;100.00;98686.09;5079538;28;19956;-74
2022/05/10 16:35:26;;;;;;;;;;;;;;;21.58;100.00;98685.69;5078768;28;19943;-75
2022/05/10 16:37:56;;;;;;;;;;;;;;;21.57;100.00;98680.44;5079199;28;19944;-75
2022/05/10 16:40:24;;;;;;;;;;;;;;;21.53;100.00;98680.59;5078436;28;19956;-75
2022/05/10 16:42:51;;;;;;;;;;;;;;;21.50;100.00;98681.53;5078076;28;19945;-75
2022/05/10 16:45:19;;;;;;;;;;;;;;;21.45;100.00;98684.94;5078707;28;19947;-75
2022/05/10 16:47:46;;;;;;;;;;;;;;;21.42;100.00;98673.72;5078936;28;19970;-75
2022/05/10 16:50:14;;;;;;;;;;;;;;;21.39;100.00;98675.44;5076663;28;19978;-75
2022/05/10 16:52:42;;;;;;;;;;;;;;;21.39;100.00;98686.81;5073988;28;19945;-75
2022/05/10 16:55:12;;;;;;;;;;;;;;;21.35;100.00;98673.94;5078839;28;19953;-75
2022/05/10 16:57:39;;;;;;;;;;;;;;;21.36;100.00;98667.81;5061640;28;20243;-75
2022/05/10 17:00:12;;;;;;;;;;;;;;;21.37;100.00;98671.47;5073978;28;20230;-75
2022/05/10 17:02:40;;;;;;;;;;;;;;;21.33;100.00;98668.72;5078870;28;19944;-75
2022/05/10 17:05:10;;;;;;;;;;;;;;;21.31;100.00;98676.94;5078258;28;19945;-74
2022/05/10 17:07:38;;;;;;;;;;;;;;;21.29;100.00;98665.22;5078544;28;19957;-74
2022/05/10 17:10:06;;;;;;;;;;;;;;;21.28;100.00;98665.66;5069157;28;19954;-75
2022/05/10 17:12:34;;;;;;;;;;;;;;;21.25;100.00;98664.53;5072792;28;19976;-74
2022/05/10 17:15:01;;;;;;;;;;;;;;;21.23;100.00;98660.56;5078061;28;19946;-75
2022/05/10 17:17:28;;;;;;;;;;;;;;;21.17;100.00;98666.06;5078225;28;19962;-74
2022/05/10 17:19:56;;;;;;;;;;;;;;;21.12;100.00;98658.13;5078212;28;19945;-74
2022/05/10 17:22:23;;;;;;;;;;;;;;;21.06;100.00;98659.16;5078162;28;20342;-74
2022/05/10 17:24:50;;;;;;;;;;;;;;;21.00;100.00;98658.13;5078344;28;19944;-75
2022/05/10 17:27:26;;;;;;;;;;;;;;;20.94;100.00;98666.44;5078330;28;19951;-75
2022/05/10 17:29:58;;;;;;;;;;;;;;;20.90;100.00;98662.94;5078527;28;19951;-75
2022/05/10 17:32:25;;;;;;;;;;;;;;;20.86;100.00;98663.03;5078026;28;19945;-75
2022/05/10 17:34:53;;;;;;;;;;;;;;;20.83;100.00;98661.09;5077590;28;19951;-75
2022/05/10 17:37:21;;;;;;;;;;;;;;;20.80;100.00;98658.41;5077838;28;19965;-74
2022/05/10 17:39:48;;;;;;;;;;;;;;;20.75;100.00;98658.97;5077563;28;20327;-75
2022/05/10 17:42:15;;;;;;;;;;;;;;;20.70;100.00;98653.88;5077769;28;20224;-74
2022/05/10 17:44:54;;;;;;;;;;;;;;;20.65;100.00;98652.41;5077966;28;20234;-74
2022/05/10 17:47:21;;;;;;;;;;;;;;;20.62;100.00;98658.19;5078189;28;19950;-75
2022/05/10 17:49:48;;;;;;;;;;;;;;;20.57;100.00;98661.59;5077890;28;19950;-75
2022/05/10 17:52:17;;;;;;;;;;;;;;;20.51;100.00;98647.19;5073260;28;19946;-74
2022/05/10 17:54:44;;;;;;;;;;;;;;;20.48;100.00;98656.63;5077272;28;19952;-75
2022/05/10 17:57:11;;;;;;;;;;;;;;;20.44;100.00;98650.28;5076917;28;19960;-75
2022/05/10 17:59:39;;;;;;;;;;;;;;;20.40;100.00;98655.25;5083051;28;19946;-75
2022/05/10 18:02:08;;;;;;;;;;;;;;;20.36;100.00;98662.31;5066879;28;19954;-73
2022/05/10 18:04:36;;;;;;;;;;;;;;;20.30;100.00;98662.88;5076715;28;19945;-74
2022/05/10 18:07:03;;;;;;;;;;;;;;;20.24;100.00;98659.03;5082061;28;20332;-74
2022/05/10 18:09:30;;;;;;;;;;;;;;;20.18;100.00;98657.16;5071137;28;20254;-74
2022/05/10 18:11:58;;;;;;;;;;;;;;;20.14;100.00;98654.44;5077285;28;19966;-74